sensor_id;sensor_type;location;lat;lon;timestamp;temperature;humidity
516;DHT22;244;48.508;9.052;2023-07-28T00:02:04;17.70;28.10
516;DHT22;244;48.508;9.052;2023-07-28T00:04:34;17.70;28.20
516;DHT22;244;48.508;9.052;2023-07-28T00:07:01;17.70;28.30
516;DHT22;244;48.508;9.052;2023-07-28T00:09:28;17.70;28.50
516;DHT22;244;48.508;9.052;2023-07-28T00:11:56;17.60;28.50
516;DHT22;244;48.508;9.052;2023-07-28T00:14:23;17.60;28.60
516;DHT22;244;48.508;9.052;2023-07-28T00:16:50;17.60;28.60
516;DHT22;244;48.508;9.052;2023-07-28T00:19:17;17.60;28.40
516;DHT22;244;48.508;9.052;2023-07-28T00:21:45;17.50;28.40
516;DHT22;244;48.508;9.052;2023-07-28T00:24:12;17.50;29.00
516;DHT22;244;48.508;9.052;2023-07-28T00:26:39;17.50;28.30
516;DHT22;244;48.508;9.052;2023-07-28T00:29:06;17.40;28.10
516;DHT22;244;48.508;9.052;2023-07-28T00:31:33;17.40;28.30
516;DHT22;244;48.508;9.052;2023-07-28T00:34:02;17.40;29.10
516;DHT22;244;48.508;9.052;2023-07-28T00:36:29;17.40;28.50
516;DHT22;244;48.508;9.052;2023-07-28T00:38:58;17.40;28.40
516;DHT22;244;48.508;9.052;2023-07-28T00:41:25;17.30;28.20
516;DHT22;244;48.508;9.052;2023-07-28T00:43:51;17.30;28.10
516;DHT22;244;48.508;9.052;2023-07-28T00:46:19;17.30;28.10
516;DHT22;244;48.508;9.052;2023-07-28T00:48:46;17.20;28.00
516;DHT22;244;48.508;9.052;2023-07-28T00:51:13;17.20;28.00
516;DHT22;244;48.508;9.052;2023-07-28T00:53:40;17.10;28.00
516;DHT22;244;48.508;9.052;2023-07-28T00:56:10;17.10;28.10
516;DHT22;244;48.508;9.052;2023-07-28T00:58:37;17.10;28.30
516;DHT22;244;48.508;9.052;2023-07-28T01:01:04;17.10;28.30
516;DHT22;244;48.508;9.052;2023-07-28T01:03:31;17.10;28.30
516;DHT22;244;48.508;9.052;2023-07-28T01:06:10;17.10;28.30
516;DHT22;244;48.508;9.052;2023-07-28T01:08:42;17.10;28.30
516;DHT22;244;48.508;9.052;2023-07-28T01:11:13;17.00;28.30
516;DHT22;244;48.508;9.052;2023-07-28T01:13:39;17.00;28.20
516;DHT22;244;48.508;9.052;2023-07-28T01:16:07;17.00;28.20
516;DHT22;244;48.508;9.052;2023-07-28T01:18:35;17.00;28.30
516;DHT22;244;48.508;9.052;2023-07-28T01:21:04;17.00;28.20
516;DHT22;244;48.508;9.052;2023-07-28T01:23:40;17.00;28.30
516;DHT22;244;48.508;9.052;2023-07-28T01:26:09;17.00;28.20
516;DHT22;244;48.508;9.052;2023-07-28T01:28:40;16.90;28.20
516;DHT22;244;48.508;9.052;2023-07-28T01:31:08;16.90;28.20
516;DHT22;244;48.508;9.052;2023-07-28T01:33:35;16.90;28.20
516;DHT22;244;48.508;9.052;2023-07-28T01:36:02;16.80;28.10
516;DHT22;244;48.508;9.052;2023-07-28T01:38:29;16.80;28.10
516;DHT22;244;48.508;9.052;2023-07-28T01:40:56;16.80;28.10
516;DHT22;244;48.508;9.052;2023-07-28T01:43:23;16.80;28.10
516;DHT22;244;48.508;9.052;2023-07-28T01:45:51;16.80;28.70
516;DHT22;244;48.508;9.052;2023-07-28T01:48:18;16.70;28.10
516;DHT22;244;48.508;9.052;2023-07-28T01:50:45;16.70;28.60
516;DHT22;244;48.508;9.052;2023-07-28T01:53:12;16.70;28.00
516;DHT22;244;48.508;9.052;2023-07-28T01:55:38;16.70;28.60
516;DHT22;244;48.508;9.052;2023-07-28T01:58:05;16.70;28.70
516;DHT22;244;48.508;9.052;2023-07-28T02:00:32;16.70;28.10
516;DHT22;244;48.508;9.052;2023-07-28T02:03:01;16.70;28.00
516;DHT22;244;48.508;9.052;2023-07-28T02:05:29;16.70;28.00
516;DHT22;244;48.508;9.052;2023-07-28T02:07:56;16.70;28.00
516;DHT22;244;48.508;9.052;2023-07-28T02:10:23;16.60;28.00
516;DHT22;244;48.508;9.052;2023-07-28T02:12:50;16.60;28.00
516;DHT22;244;48.508;9.052;2023-07-28T02:15:17;16.60;28.00
516;DHT22;244;48.508;9.052;2023-07-28T02:17:44;16.60;28.00
516;DHT22;244;48.508;9.052;2023-07-28T02:20:13;16.60;28.00
516;DHT22;244;48.508;9.052;2023-07-28T02:22:41;16.60;28.00
516;DHT22;244;48.508;9.052;2023-07-28T02:25:08;16.60;28.00
516;DHT22;244;48.508;9.052;2023-07-28T02:27:36;16.60;28.00
516;DHT22;244;48.508;9.052;2023-07-28T02:30:04;16.60;28.60
516;DHT22;244;48.508;9.052;2023-07-28T02:32:31;16.60;28.00
516;DHT22;244;48.508;9.052;2023-07-28T02:34:58;16.50;27.90
516;DHT22;244;48.508;9.052;2023-07-28T02:37:26;16.50;27.90
516;DHT22;244;48.508;9.052;2023-07-28T02:39:53;16.50;27.90
516;DHT22;244;48.508;9.052;2023-07-28T02:42:20;16.50;27.90
516;DHT22;244;48.508;9.052;2023-07-28T02:44:49;16.40;27.80
516;DHT22;244;48.508;9.052;2023-07-28T02:47:16;16.40;27.90
516;DHT22;244;48.508;9.052;2023-07-28T02:49:43;16.40;27.80
516;DHT22;244;48.508;9.052;2023-07-28T02:52:10;16.30;27.80
516;DHT22;244;48.508;9.052;2023-07-28T02:54:38;16.40;27.80
516;DHT22;244;48.508;9.052;2023-07-28T02:57:05;16.40;27.80
516;DHT22;244;48.508;9.052;2023-07-28T02:59:32;16.30;27.80
516;DHT22;244;48.508;9.052;2023-07-28T03:01:59;16.30;28.40
516;DHT22;244;48.508;9.052;2023-07-28T03:04:26;16.30;27.80
516;DHT22;244;48.508;9.052;2023-07-28T03:06:53;16.30;27.80
516;DHT22;244;48.508;9.052;2023-07-28T03:09:20;16.30;27.80
516;DHT22;244;48.508;9.052;2023-07-28T03:11:48;16.30;27.80
516;DHT22;244;48.508;9.052;2023-07-28T03:14:15;16.30;27.80
516;DHT22;244;48.508;9.052;2023-07-28T03:16:42;16.30;27.80
516;DHT22;244;48.508;9.052;2023-07-28T03:19:09;16.30;28.40
516;DHT22;244;48.508;9.052;2023-07-28T03:21:36;16.30;27.80
516;DHT22;244;48.508;9.052;2023-07-28T03:24:04;16.30;27.80
516;DHT22;244;48.508;9.052;2023-07-28T03:26:31;16.30;27.80
516;DHT22;244;48.508;9.052;2023-07-28T03:28:59;16.30;28.40
516;DHT22;244;48.508;9.052;2023-07-28T03:31:26;16.30;28.40
516;DHT22;244;48.508;9.052;2023-07-28T03:33:53;16.40;28.40
516;DHT22;244;48.508;9.052;2023-07-28T03:36:19;16.40;27.80
516;DHT22;244;48.508;9.052;2023-07-28T03:38:46;16.40;28.40
516;DHT22;244;48.508;9.052;2023-07-28T03:41:14;16.30;28.40
516;DHT22;244;48.508;9.052;2023-07-28T03:43:41;16.40;27.90
516;DHT22;244;48.508;9.052;2023-07-28T03:46:09;16.40;27.80
516;DHT22;244;48.508;9.052;2023-07-28T03:48:36;16.40;27.80
516;DHT22;244;48.508;9.052;2023-07-28T03:51:03;16.40;27.90
516;DHT22;244;48.508;9.052;2023-07-28T03:53:30;16.40;27.80
516;DHT22;244;48.508;9.052;2023-07-28T03:55:57;16.40;27.80
516;DHT22;244;48.508;9.052;2023-07-28T03:58:25;16.40;27.90
516;DHT22;244;48.508;9.052;2023-07-28T04:00:52;16.50;27.90
516;DHT22;244;48.508;9.052;2023-07-28T04:03:21;16.40;27.80
516;DHT22;244;48.508;9.052;2023-07-28T04:05:47;16.40;28.40
516;DHT22;244;48.508;9.052;2023-07-28T04:08:15;16.40;27.80
516;DHT22;244;48.508;9.052;2023-07-28T04:10:41;16.50;27.90
516;DHT22;244;48.508;9.052;2023-07-28T04:13:08;16.50;27.90
516;DHT22;244;48.508;9.052;2023-07-28T04:15:35;16.50;27.90
516;DHT22;244;48.508;9.052;2023-07-28T04:18:03;16.60;28.60
516;DHT22;244;48.508;9.052;2023-07-28T04:20:31;16.60;28.00
516;DHT22;244;48.508;9.052;2023-07-28T04:22:58;16.60;28.00
516;DHT22;244;48.508;9.052;2023-07-28T04:25:24;16.70;28.00
516;DHT22;244;48.508;9.052;2023-07-28T04:27:51;16.70;28.10
516;DHT22;244;48.508;9.052;2023-07-28T04:30:18;16.70;28.00
516;DHT22;244;48.508;9.052;2023-07-28T04:32:45;16.80;28.10
516;DHT22;244;48.508;9.052;2023-07-28T04:35:12;16.80;28.50
516;DHT22;244;48.508;9.052;2023-07-28T04:37:41;16.80;27.90
516;DHT22;244;48.508;9.052;2023-07-28T04:40:08;16.90;28.00
516;DHT22;244;48.508;9.052;2023-07-28T04:42:35;16.90;27.90
516;DHT22;244;48.508;9.052;2023-07-28T04:45:03;16.90;28.50
516;DHT22;244;48.508;9.052;2023-07-28T04:47:30;17.00;27.90
516;DHT22;244;48.508;9.052;2023-07-28T04:49:57;17.00;27.90
516;DHT22;244;48.508;9.052;2023-07-28T04:52:24;17.00;27.70
516;DHT22;244;48.508;9.052;2023-07-28T04:54:52;17.10;27.80
516;DHT22;244;48.508;9.052;2023-07-28T04:57:19;17.10;27.70
516;DHT22;244;48.508;9.052;2023-07-28T04:59:46;17.10;27.60
516;DHT22;244;48.508;9.052;2023-07-28T05:02:13;17.20;27.70
516;DHT22;244;48.508;9.052;2023-07-28T05:04:39;17.20;27.60
516;DHT22;244;48.508;9.052;2023-07-28T05:07:06;17.20;28.30
516;DHT22;244;48.508;9.052;2023-07-28T05:09:33;17.20;27.80
516;DHT22;244;48.508;9.052;2023-07-28T05:12:01;17.20;27.80
516;DHT22;244;48.508;9.052;2023-07-28T05:14:29;17.30;27.70
516;DHT22;244;48.508;9.052;2023-07-28T05:16:56;17.30;27.70
516;DHT22;244;48.508;9.052;2023-07-28T05:19:22;17.30;28.20
516;DHT22;244;48.508;9.052;2023-07-28T05:21:49;17.30;27.60
516;DHT22;244;48.508;9.052;2023-07-28T05:24:16;17.30;27.60
516;DHT22;244;48.508;9.052;2023-07-28T05:26:43;17.40;27.70
516;DHT22;244;48.508;9.052;2023-07-28T05:29:11;17.40;27.70
516;DHT22;244;48.508;9.052;2023-07-28T05:31:38;17.40;27.60
516;DHT22;244;48.508;9.052;2023-07-28T05:34:05;17.40;27.60
516;DHT22;244;48.508;9.052;2023-07-28T05:36:32;17.40;27.60
516;DHT22;244;48.508;9.052;2023-07-28T05:38:59;17.50;27.60
516;DHT22;244;48.508;9.052;2023-07-28T05:41:28;17.50;27.50
516;DHT22;244;48.508;9.052;2023-07-28T05:43:54;17.50;27.50
516;DHT22;244;48.508;9.052;2023-07-28T05:46:23;17.60;27.50
516;DHT22;244;48.508;9.052;2023-07-28T05:48:50;17.60;27.50
516;DHT22;244;48.508;9.052;2023-07-28T05:51:17;17.60;27.50
516;DHT22;244;48.508;9.052;2023-07-28T05:53:43;17.60;27.50
516;DHT22;244;48.508;9.052;2023-07-28T05:56:10;17.70;27.60
516;DHT22;244;48.508;9.052;2023-07-28T05:58:37;17.70;27.70
516;DHT22;244;48.508;9.052;2023-07-28T06:01:04;17.70;27.70
516;DHT22;244;48.508;9.052;2023-07-28T06:03:32;17.80;28.20
516;DHT22;244;48.508;9.052;2023-07-28T06:05:59;17.80;27.50
516;DHT22;244;48.508;9.052;2023-07-28T06:08:27;17.80;27.50
516;DHT22;244;48.508;9.052;2023-07-28T06:10:53;17.90;27.60
516;DHT22;244;48.508;9.052;2023-07-28T06:13:20;17.90;28.20
516;DHT22;244;48.508;9.052;2023-07-28T06:15:47;18.00;28.30
516;DHT22;244;48.508;9.052;2023-07-28T06:18:14;18.00;27.70
516;DHT22;244;48.508;9.052;2023-07-28T06:20:43;18.10;27.70
516;DHT22;244;48.508;9.052;2023-07-28T06:23:11;18.20;27.70
516;DHT22;244;48.508;9.052;2023-07-28T06:25:37;18.20;27.50
516;DHT22;244;48.508;9.052;2023-07-28T06:28:09;18.30;28.20
516;DHT22;244;48.508;9.052;2023-07-28T06:30:36;18.30;27.50
516;DHT22;244;48.508;9.052;2023-07-28T06:33:03;18.30;27.50
516;DHT22;244;48.508;9.052;2023-07-28T06:35:30;18.30;27.40
516;DHT22;244;48.508;9.052;2023-07-28T06:37:58;18.30;27.30
516;DHT22;244;48.508;9.052;2023-07-28T06:40:26;18.40;27.40
516;DHT22;244;48.508;9.052;2023-07-28T06:42:53;18.40;27.40
516;DHT22;244;48.508;9.052;2023-07-28T06:45:20;18.50;27.50
516;DHT22;244;48.508;9.052;2023-07-28T06:47:47;18.50;27.50
516;DHT22;244;48.508;9.052;2023-07-28T06:50:14;18.60;27.50
516;DHT22;244;48.508;9.052;2023-07-28T06:52:41;18.60;27.50
516;DHT22;244;48.508;9.052;2023-07-28T06:55:09;18.70;27.60
516;DHT22;244;48.508;9.052;2023-07-28T06:57:36;18.80;27.60
516;DHT22;244;48.508;9.052;2023-07-28T07:00:03;18.90;27.60
516;DHT22;244;48.508;9.052;2023-07-28T07:02:31;18.90;27.60
516;DHT22;244;48.508;9.052;2023-07-28T07:04:57;19.00;27.60
516;DHT22;244;48.508;9.052;2023-07-28T07:07:24;19.00;27.60
516;DHT22;244;48.508;9.052;2023-07-28T07:09:51;19.10;28.20
516;DHT22;244;48.508;9.052;2023-07-28T07:12:19;19.20;27.60
516;DHT22;244;48.508;9.052;2023-07-28T07:14:47;19.20;28.10
516;DHT22;244;48.508;9.052;2023-07-28T07:17:14;19.30;27.50
516;DHT22;244;48.508;9.052;2023-07-28T07:19:41;19.30;27.40
516;DHT22;244;48.508;9.052;2023-07-28T07:22:08;19.30;27.40
516;DHT22;244;48.508;9.052;2023-07-28T07:24:34;19.40;27.30
516;DHT22;244;48.508;9.052;2023-07-28T07:27:01;19.50;28.00
516;DHT22;244;48.508;9.052;2023-07-28T07:29:30;19.60;28.00
516;DHT22;244;48.508;9.052;2023-07-28T07:31:56;19.60;27.40
516;DHT22;244;48.508;9.052;2023-07-28T07:34:24;19.70;27.40
516;DHT22;244;48.508;9.052;2023-07-28T07:36:50;19.80;27.30
516;DHT22;244;48.508;9.052;2023-07-28T07:39:17;19.90;27.40
516;DHT22;244;48.508;9.052;2023-07-28T07:41:44;19.90;27.40
516;DHT22;244;48.508;9.052;2023-07-28T07:44:11;20.10;28.10
516;DHT22;244;48.508;9.052;2023-07-28T07:46:39;20.20;27.40
516;DHT22;244;48.508;9.052;2023-07-28T07:49:06;20.30;27.30
516;DHT22;244;48.508;9.052;2023-07-28T07:51:33;20.40;27.30
516;DHT22;244;48.508;9.052;2023-07-28T07:54:00;20.60;27.70
516;DHT22;244;48.508;9.052;2023-07-28T07:56:27;20.70;27.20
516;DHT22;244;48.508;9.052;2023-07-28T07:58:54;20.90;27.20
516;DHT22;244;48.508;9.052;2023-07-28T08:01:21;21.00;27.10
516;DHT22;244;48.508;9.052;2023-07-28T08:03:50;21.10;27.10
516;DHT22;244;48.508;9.052;2023-07-28T08:06:16;21.20;26.80
516;DHT22;244;48.508;9.052;2023-07-28T08:08:43;21.20;27.40
516;DHT22;244;48.508;9.052;2023-07-28T08:11:11;21.20;26.80
516;DHT22;244;48.508;9.052;2023-07-28T08:13:38;21.20;26.80
516;DHT22;244;48.508;9.052;2023-07-28T08:16:05;21.30;26.90
516;DHT22;244;48.508;9.052;2023-07-28T08:18:32;21.40;26.90
516;DHT22;244;48.508;9.052;2023-07-28T08:21:00;21.50;27.50
516;DHT22;244;48.508;9.052;2023-07-28T08:23:27;21.60;27.60
516;DHT22;244;48.508;9.052;2023-07-28T08:25:54;21.70;26.90
516;DHT22;244;48.508;9.052;2023-07-28T08:28:21;21.90;26.90
516;DHT22;244;48.508;9.052;2023-07-28T08:30:54;22.00;26.90
516;DHT22;244;48.508;9.052;2023-07-28T08:33:22;22.20;26.80
516;DHT22;244;48.508;9.052;2023-07-28T08:35:49;22.30;26.60
516;DHT22;244;48.508;9.052;2023-07-28T08:38:17;22.50;26.50
516;DHT22;244;48.508;9.052;2023-07-28T08:40:44;22.50;26.30
516;DHT22;244;48.508;9.052;2023-07-28T08:43:11;22.60;26.20
516;DHT22;244;48.508;9.052;2023-07-28T08:45:38;22.70;26.00
516;DHT22;244;48.508;9.052;2023-07-28T08:48:05;22.80;25.90
516;DHT22;244;48.508;9.052;2023-07-28T08:50:32;22.90;25.80
516;DHT22;244;48.508;9.052;2023-07-28T08:52:59;23.10;25.80
516;DHT22;244;48.508;9.052;2023-07-28T08:55:27;23.20;26.20
516;DHT22;244;48.508;9.052;2023-07-28T08:57:54;23.30;25.30
516;DHT22;244;48.508;9.052;2023-07-28T09:00:23;23.40;25.00
516;DHT22;244;48.508;9.052;2023-07-28T09:02:51;23.50;24.50
516;DHT22;244;48.508;9.052;2023-07-28T09:05:19;23.60;24.10
516;DHT22;244;48.508;9.052;2023-07-28T09:07:49;23.70;24.80
516;DHT22;244;48.508;9.052;2023-07-28T09:10:17;23.90;24.30
516;DHT22;244;48.508;9.052;2023-07-28T09:12:47;24.10;23.90
516;DHT22;244;48.508;9.052;2023-07-28T09:15:14;24.20;23.50
516;DHT22;244;48.508;9.052;2023-07-28T09:17:43;24.40;22.70
516;DHT22;244;48.508;9.052;2023-07-28T09:20:13;24.50;22.50
516;DHT22;244;48.508;9.052;2023-07-28T09:22:41;24.70;22.20
516;DHT22;244;48.508;9.052;2023-07-28T09:25:13;24.80;21.70
516;DHT22;244;48.508;9.052;2023-07-28T09:27:40;24.90;21.20
516;DHT22;244;48.508;9.052;2023-07-28T09:30:09;24.90;20.90
516;DHT22;244;48.508;9.052;2023-07-28T09:32:47;25.00;20.70
516;DHT22;244;48.508;9.052;2023-07-28T09:35:14;25.10;19.40
516;DHT22;244;48.508;9.052;2023-07-28T09:37:43;25.20;19.20
516;DHT22;244;48.508;9.052;2023-07-28T09:40:11;25.30;18.90
516;DHT22;244;48.508;9.052;2023-07-28T09:42:38;25.30;18.50
516;DHT22;244;48.508;9.052;2023-07-28T09:45:06;25.40;18.20
516;DHT22;244;48.508;9.052;2023-07-28T09:47:35;25.50;17.90
516;DHT22;244;48.508;9.052;2023-07-28T09:50:04;25.40;17.50
516;DHT22;244;48.508;9.052;2023-07-28T09:52:34;25.40;17.40
516;DHT22;244;48.508;9.052;2023-07-28T09:55:05;25.30;17.40
516;DHT22;244;48.508;9.052;2023-07-28T09:57:35;25.40;17.50
516;DHT22;244;48.508;9.052;2023-07-28T10:00:04;25.50;17.90
516;DHT22;244;48.508;9.052;2023-07-28T10:02:32;25.60;17.20
516;DHT22;244;48.508;9.052;2023-07-28T10:05:02;25.70;16.80
516;DHT22;244;48.508;9.052;2023-07-28T10:07:30;25.70;16.50
516;DHT22;244;48.508;9.052;2023-07-28T10:09:57;25.70;16.40
516;DHT22;244;48.508;9.052;2023-07-28T10:12:25;25.90;17.10
516;DHT22;244;48.508;9.052;2023-07-28T10:15:00;25.90;16.50
516;DHT22;244;48.508;9.052;2023-07-28T10:17:31;26.00;16.60
516;DHT22;244;48.508;9.052;2023-07-28T10:19:59;26.00;16.20
516;DHT22;244;48.508;9.052;2023-07-28T10:22:28;26.00;15.90
516;DHT22;244;48.508;9.052;2023-07-28T10:24:57;26.00;16.30
516;DHT22;244;48.508;9.052;2023-07-28T10:27:31;26.00;15.50
516;DHT22;244;48.508;9.052;2023-07-28T10:29:59;26.10;15.50
516;DHT22;244;48.508;9.052;2023-07-28T10:32:26;26.10;15.00
516;DHT22;244;48.508;9.052;2023-07-28T10:35:00;26.10;14.80
516;DHT22;244;48.508;9.052;2023-07-28T10:37:29;26.10;15.00
516;DHT22;244;48.508;9.052;2023-07-28T10:40:26;26.30;14.90
516;DHT22;244;48.508;9.052;2023-07-28T10:42:54;26.40;14.50
516;DHT22;244;48.508;9.052;2023-07-28T10:45:22;26.50;14.50
516;DHT22;244;48.508;9.052;2023-07-28T10:47:51;26.60;14.40
516;DHT22;244;48.508;9.052;2023-07-28T10:50:20;26.60;14.00
516;DHT22;244;48.508;9.052;2023-07-28T10:52:49;26.60;14.00
516;DHT22;244;48.508;9.052;2023-07-28T10:55:17;26.70;13.80
516;DHT22;244;48.508;9.052;2023-07-28T10:57:46;26.70;13.50
516;DHT22;244;48.508;9.052;2023-07-28T11:00:16;26.70;13.50
516;DHT22;244;48.508;9.052;2023-07-28T11:02:43;26.70;13.30
516;DHT22;244;48.508;9.052;2023-07-28T11:05:12;26.70;13.10
516;DHT22;244;48.508;9.052;2023-07-28T11:07:41;26.70;13.10
516;DHT22;244;48.508;9.052;2023-07-28T11:10:10;26.60;12.90
516;DHT22;244;48.508;9.052;2023-07-28T11:12:41;26.50;12.80
516;DHT22;244;48.508;9.052;2023-07-28T11:15:09;26.30;12.40
516;DHT22;244;48.508;9.052;2023-07-28T11:17:38;26.20;12.20
516;DHT22;244;48.508;9.052;2023-07-28T11:20:14;26.00;12.00
516;DHT22;244;48.508;9.052;2023-07-28T11:22:41;25.80;12.30
516;DHT22;244;48.508;9.052;2023-07-28T11:25:10;25.40;12.60
516;DHT22;244;48.508;9.052;2023-07-28T11:27:37;25.10;13.00
516;DHT22;244;48.508;9.052;2023-07-28T11:30:07;24.80;14.00
516;DHT22;244;48.508;9.052;2023-07-28T11:32:35;24.60;13.80
516;DHT22;244;48.508;9.052;2023-07-28T11:35:03;24.40;14.10
516;DHT22;244;48.508;9.052;2023-07-28T11:37:32;24.10;14.40
516;DHT22;244;48.508;9.052;2023-07-28T11:40:00;23.90;15.60
516;DHT22;244;48.508;9.052;2023-07-28T11:42:29;23.60;15.20
516;DHT22;244;48.508;9.052;2023-07-28T11:44:57;23.30;15.40
516;DHT22;244;48.508;9.052;2023-07-28T11:47:25;23.00;16.00
516;DHT22;244;48.508;9.052;2023-07-28T11:49:52;22.80;16.40
516;DHT22;244;48.508;9.052;2023-07-28T11:52:19;22.70;16.70
516;DHT22;244;48.508;9.052;2023-07-28T11:54:47;22.70;17.10
516;DHT22;244;48.508;9.052;2023-07-28T11:57:14;22.70;17.20
516;DHT22;244;48.508;9.052;2023-07-28T11:59:43;22.80;17.40
516;DHT22;244;48.508;9.052;2023-07-28T12:02:10;23.00;17.40
516;DHT22;244;48.508;9.052;2023-07-28T12:04:38;23.20;17.20
516;DHT22;244;48.508;9.052;2023-07-28T12:07:07;23.40;17.00
516;DHT22;244;48.508;9.052;2023-07-28T12:09:48;23.70;16.60
516;DHT22;244;48.508;9.052;2023-07-28T12:12:17;24.00;16.80
516;DHT22;244;48.508;9.052;2023-07-28T12:14:46;24.40;15.70
516;DHT22;244;48.508;9.052;2023-07-28T12:17:13;24.60;16.30
516;DHT22;244;48.508;9.052;2023-07-28T12:19:55;24.80;15.20
516;DHT22;244;48.508;9.052;2023-07-28T12:22:22;25.00;14.80
516;DHT22;244;48.508;9.052;2023-07-28T12:24:49;25.20;14.40
516;DHT22;244;48.508;9.052;2023-07-28T12:27:16;25.30;14.00
516;DHT22;244;48.508;9.052;2023-07-28T12:29:44;25.40;13.80
516;DHT22;244;48.508;9.052;2023-07-28T12:32:11;25.40;13.60
516;DHT22;244;48.508;9.052;2023-07-28T12:34:38;25.50;13.50
516;DHT22;244;48.508;9.052;2023-07-28T12:37:06;25.60;13.30
516;DHT22;244;48.508;9.052;2023-07-28T12:39:35;25.60;13.90
516;DHT22;244;48.508;9.052;2023-07-28T12:42:02;25.60;13.10
516;DHT22;244;48.508;9.052;2023-07-28T12:44:30;25.60;13.00
516;DHT22;244;48.508;9.052;2023-07-28T12:46:58;25.60;13.10
516;DHT22;244;48.508;9.052;2023-07-28T12:49:25;25.70;13.00
516;DHT22;244;48.508;9.052;2023-07-28T12:51:54;25.70;13.00
516;DHT22;244;48.508;9.052;2023-07-28T12:54:21;25.60;13.00
516;DHT22;244;48.508;9.052;2023-07-28T12:56:48;25.60;13.10
516;DHT22;244;48.508;9.052;2023-07-28T12:59:15;25.70;13.20
516;DHT22;244;48.508;9.052;2023-07-28T13:01:42;25.70;13.70
516;DHT22;244;48.508;9.052;2023-07-28T13:04:10;25.70;13.00
516;DHT22;244;48.508;9.052;2023-07-28T13:06:37;25.70;13.60
516;DHT22;244;48.508;9.052;2023-07-28T13:09:06;25.60;13.00
516;DHT22;244;48.508;9.052;2023-07-28T13:11:33;25.50;13.60
516;DHT22;244;48.508;9.052;2023-07-28T13:14:00;25.40;13.70
516;DHT22;244;48.508;9.052;2023-07-28T13:16:27;25.30;12.90
516;DHT22;244;48.508;9.052;2023-07-28T13:18:54;25.30;13.00
516;DHT22;244;48.508;9.052;2023-07-28T13:21:23;25.20;13.00
516;DHT22;244;48.508;9.052;2023-07-28T13:23:50;25.20;13.10
516;DHT22;244;48.508;9.052;2023-07-28T13:26:17;25.10;13.10
516;DHT22;244;48.508;9.052;2023-07-28T13:28:44;25.00;13.20
516;DHT22;244;48.508;9.052;2023-07-28T13:31:12;24.90;13.80
516;DHT22;244;48.508;9.052;2023-07-28T13:33:39;24.90;13.60
516;DHT22;244;48.508;9.052;2023-07-28T13:36:06;24.80;12.90
516;DHT22;244;48.508;9.052;2023-07-28T13:38:35;24.70;12.70
516;DHT22;244;48.508;9.052;2023-07-28T13:41:04;24.60;13.20
516;DHT22;244;48.508;9.052;2023-07-28T13:43:32;24.40;12.50
516;DHT22;244;48.508;9.052;2023-07-28T13:46:00;24.20;12.70
516;DHT22;244;48.508;9.052;2023-07-28T13:48:27;23.90;13.40
516;DHT22;244;48.508;9.052;2023-07-28T13:50:54;23.70;12.90
516;DHT22;244;48.508;9.052;2023-07-28T13:53:21;23.60;13.20
516;DHT22;244;48.508;9.052;2023-07-28T13:55:50;23.50;13.30
516;DHT22;244;48.508;9.052;2023-07-28T13:58:17;23.40;13.40
516;DHT22;244;48.508;9.052;2023-07-28T14:00:44;23.40;13.40
516;DHT22;244;48.508;9.052;2023-07-28T14:03:11;23.40;13.30
516;DHT22;244;48.508;9.052;2023-07-28T14:05:38;23.50;13.80
516;DHT22;244;48.508;9.052;2023-07-28T14:08:05;23.60;13.80
516;DHT22;244;48.508;9.052;2023-07-28T14:10:32;23.70;13.70
516;DHT22;244;48.508;9.052;2023-07-28T14:13:00;23.80;13.00
516;DHT22;244;48.508;9.052;2023-07-28T14:15:28;23.90;13.00
516;DHT22;244;48.508;9.052;2023-07-28T14:17:55;23.90;12.90
516;DHT22;244;48.508;9.052;2023-07-28T14:20:22;24.00;12.80
516;DHT22;244;48.508;9.052;2023-07-28T14:22:49;24.10;12.80
516;DHT22;244;48.508;9.052;2023-07-28T14:25:16;24.20;13.30
516;DHT22;244;48.508;9.052;2023-07-28T14:27:42;24.30;12.50
516;DHT22;244;48.508;9.052;2023-07-28T14:30:11;24.40;12.40
516;DHT22;244;48.508;9.052;2023-07-28T14:32:38;24.50;12.20
516;DHT22;244;48.508;9.052;2023-07-28T14:35:05;24.60;12.50
516;DHT22;244;48.508;9.052;2023-07-28T14:37:32;24.60;11.70
516;DHT22;244;48.508;9.052;2023-07-28T14:39:59;24.60;11.70
516;DHT22;244;48.508;9.052;2023-07-28T14:42:26;24.70;12.40
516;DHT22;244;48.508;9.052;2023-07-28T14:44:53;24.70;12.40
516;DHT22;244;48.508;9.052;2023-07-28T14:47:21;24.80;12.40
516;DHT22;244;48.508;9.052;2023-07-28T14:49:48;25.10;12.00
516;DHT22;244;48.508;9.052;2023-07-28T14:52:15;25.40;11.50
516;DHT22;244;48.508;9.052;2023-07-28T14:54:42;25.40;11.10
516;DHT22;244;48.508;9.052;2023-07-28T14:57:09;25.40;11.00
516;DHT22;244;48.508;9.052;2023-07-28T14:59:40;25.50;10.80
516;DHT22;244;48.508;9.052;2023-07-28T15:02:07;25.50;10.80
516;DHT22;244;48.508;9.052;2023-07-28T15:04:35;25.50;10.70
516;DHT22;244;48.508;9.052;2023-07-28T15:07:02;25.40;10.70
516;DHT22;244;48.508;9.052;2023-07-28T15:09:29;25.40;10.80
516;DHT22;244;48.508;9.052;2023-07-28T15:11:56;25.40;11.00
516;DHT22;244;48.508;9.052;2023-07-28T15:14:23;25.40;11.00
516;DHT22;244;48.508;9.052;2023-07-28T15:16:49;25.40;11.10
516;DHT22;244;48.508;9.052;2023-07-28T15:19:16;25.40;11.10
516;DHT22;244;48.508;9.052;2023-07-28T15:21:44;25.30;11.80
516;DHT22;244;48.508;9.052;2023-07-28T15:24:11;25.20;11.90
516;DHT22;244;48.508;9.052;2023-07-28T15:26:38;25.10;11.30
516;DHT22;244;48.508;9.052;2023-07-28T15:29:05;25.10;11.30
516;DHT22;244;48.508;9.052;2023-07-28T15:31:32;24.90;11.40
516;DHT22;244;48.508;9.052;2023-07-28T15:33:59;24.90;11.50
516;DHT22;244;48.508;9.052;2023-07-28T15:36:26;24.80;11.60
516;DHT22;244;48.508;9.052;2023-07-28T15:38:54;24.70;11.70
516;DHT22;244;48.508;9.052;2023-07-28T15:41:21;24.60;12.50
516;DHT22;244;48.508;9.052;2023-07-28T15:43:48;24.50;11.90
516;DHT22;244;48.508;9.052;2023-07-28T15:46:15;24.50;12.10
516;DHT22;244;48.508;9.052;2023-07-28T15:48:41;24.30;12.30
516;DHT22;244;48.508;9.052;2023-07-28T15:51:09;24.10;12.60
516;DHT22;244;48.508;9.052;2023-07-28T15:53:36;23.90;13.10
516;DHT22;244;48.508;9.052;2023-07-28T15:56:04;23.70;13.90
516;DHT22;244;48.508;9.052;2023-07-28T15:58:31;23.70;13.60
516;DHT22;244;48.508;9.052;2023-07-28T16:00:58;23.60;13.90
516;DHT22;244;48.508;9.052;2023-07-28T16:03:26;23.60;14.10
516;DHT22;244;48.508;9.052;2023-07-28T16:05:53;23.60;14.80
516;DHT22;244;48.508;9.052;2023-07-28T16:08:19;23.50;14.30
516;DHT22;244;48.508;9.052;2023-07-28T16:10:46;23.30;15.30
516;DHT22;244;48.508;9.052;2023-07-28T16:13:14;23.20;14.90
516;DHT22;244;48.508;9.052;2023-07-28T16:15:42;23.10;15.40
516;DHT22;244;48.508;9.052;2023-07-28T16:18:08;23.00;15.60
516;DHT22;244;48.508;9.052;2023-07-28T16:20:36;22.80;15.80
516;DHT22;244;48.508;9.052;2023-07-28T16:23:03;22.70;15.50
516;DHT22;244;48.508;9.052;2023-07-28T16:25:30;22.70;15.80
516;DHT22;244;48.508;9.052;2023-07-28T16:27:57;22.60;16.00
516;DHT22;244;48.508;9.052;2023-07-28T16:30:25;22.50;16.20
516;DHT22;244;48.508;9.052;2023-07-28T16:32:52;22.50;16.40
516;DHT22;244;48.508;9.052;2023-07-28T16:35:19;22.50;16.50
516;DHT22;244;48.508;9.052;2023-07-28T16:37:46;22.50;16.60